createdAt,value
2023-01-23T00:02:02.612Z,2.28
2023-01-23T00:04:31.577Z,2.43
2023-01-23T00:06:59.110Z,2.24
2023-01-23T00:09:26.647Z,2.33
2023-01-23T00:11:54.351Z,2.19
2023-01-23T00:14:21.909Z,2.20
2023-01-23T00:16:49.664Z,2.30
2023-01-23T00:19:17.679Z,2.10
2023-01-23T00:21:46.588Z,1.89
2023-01-23T00:24:14.134Z,1.99
2023-01-23T00:26:41.751Z,1.90
2023-01-23T00:29:09.574Z,2.02
2023-01-23T00:31:38.713Z,2.06
2023-01-23T00:34:10.362Z,1.98
2023-01-23T00:36:40.096Z,2.01
2023-01-23T00:39:18.421Z,2.04
2023-01-23T00:41:49.567Z,2.05
2023-01-23T00:44:19.046Z,2.10
2023-01-23T00:46:48.085Z,2.33
2023-01-23T00:49:15.850Z,2.33
2023-01-23T00:51:43.756Z,2.43
2023-01-23T00:54:12.703Z,2.34
2023-01-23T00:56:40.266Z,2.39
2023-01-23T00:59:07.861Z,2.56
2023-01-23T01:01:36.141Z,2.55
2023-01-23T01:04:04.237Z,2.38
2023-01-23T01:06:32.160Z,2.45
2023-01-23T01:09:00.066Z,2.49
2023-01-23T01:11:29.021Z,2.52
2023-01-23T01:13:59.798Z,2.48
2023-01-23T01:16:27.521Z,2.40
2023-01-23T01:18:55.095Z,2.36
2023-01-23T01:21:22.720Z,2.20
2023-01-23T01:23:50.593Z,2.35
2023-01-23T01:26:18.187Z,2.30
2023-01-23T01:28:50.712Z,2.29
2023-01-23T01:31:19.867Z,2.14
2023-01-23T01:33:50.040Z,2.13
2023-01-23T01:36:21.341Z,2.07
2023-01-23T01:38:48.927Z,2.18
2023-01-23T01:41:17.234Z,2.11
2023-01-23T01:43:45.103Z,2.22
2023-01-23T01:46:21.507Z,2.13
2023-01-23T01:49:05.603Z,2.15
2023-01-23T01:51:38.819Z,1.98
2023-01-23T01:54:14.451Z,2.17
2023-01-23T01:56:48.203Z,1.92
2023-01-23T01:59:18.816Z,1.74
2023-01-23T02:01:53.751Z,1.76
2023-01-23T02:04:21.507Z,1.77
2023-01-23T02:06:52.581Z,1.74
2023-01-23T02:09:25.067Z,1.78
2023-01-23T02:11:52.938Z,1.94
2023-01-23T02:14:21.077Z,1.62
2023-01-23T02:16:50.063Z,1.90
2023-01-23T02:19:36.884Z,1.59
2023-01-23T02:22:23.610Z,1.51
2023-01-23T02:25:03.028Z,1.44
2023-01-23T02:27:31.972Z,1.39
2023-01-23T02:29:59.535Z,1.35
2023-01-23T02:32:27.142Z,1.50
2023-01-23T02:35:00.654Z,1.44
2023-01-23T02:37:32.123Z,1.63
2023-01-23T02:39:59.858Z,1.35
2023-01-23T02:42:30.837Z,1.56
2023-01-23T02:45:01.423Z,1.58
2023-01-23T02:47:28.980Z,1.52
2023-01-23T02:49:56.542Z,1.52
2023-01-23T02:52:24.239Z,1.42
2023-01-23T02:54:52.037Z,1.49
2023-01-23T02:57:19.619Z,1.75
2023-01-23T02:59:47.205Z,1.72
2023-01-23T03:02:16.216Z,1.82
2023-01-23T03:04:43.783Z,1.57
2023-01-23T03:07:11.366Z,1.65
2023-01-23T03:09:39.184Z,1.86
2023-01-23T03:12:06.768Z,1.68
2023-01-23T03:14:34.448Z,1.68
2023-01-23T03:17:01.995Z,1.91
2023-01-23T03:19:30.949Z,2.24
2023-01-23T03:21:59.347Z,2.00
2023-01-23T03:24:27.030Z,2.23
2023-01-23T03:26:56.874Z,1.65
2023-01-23T03:29:25.936Z,2.01
2023-01-23T03:31:54.921Z,1.80
2023-01-23T03:34:22.656Z,1.98
2023-01-23T03:36:51.865Z,2.13
2023-01-23T03:39:19.474Z,1.98
2023-01-23T03:41:49.814Z,1.86
2023-01-23T03:44:18.734Z,1.92
2023-01-23T03:46:47.276Z,1.99
2023-01-23T03:49:15.798Z,1.95
2023-01-23T03:51:43.439Z,1.92
2023-01-23T03:54:13.887Z,1.72
2023-01-23T03:56:44.951Z,1.73
2023-01-23T03:59:12.523Z,1.58
2023-01-23T04:01:41.097Z,1.67
2023-01-23T04:04:08.788Z,1.53
2023-01-23T04:06:36.628Z,1.76
2023-01-23T04:09:04.462Z,1.62
2023-01-23T04:11:36.491Z,1.55
2023-01-23T04:14:04.163Z,1.68
2023-01-23T04:16:31.744Z,1.76
2023-01-23T04:18:59.384Z,1.54
2023-01-23T04:21:27.049Z,1.48
2023-01-23T04:23:54.879Z,1.42
2023-01-23T04:26:22.434Z,1.24
2023-01-23T04:28:51.587Z,1.74
2023-01-23T04:31:19.296Z,1.26
2023-01-23T04:33:47.963Z,1.38
2023-01-23T04:36:15.503Z,1.47
2023-01-23T04:38:43.063Z,1.60
2023-01-23T04:41:18.949Z,1.44
2023-01-23T04:43:46.668Z,1.61
2023-01-23T04:46:15.702Z,1.48
2023-01-23T04:48:43.709Z,1.54
2023-01-23T04:51:11.650Z,1.67
2023-01-23T04:53:39.549Z,1.47
2023-01-23T04:56:07.219Z,1.57
2023-01-23T04:58:34.753Z,1.58
2023-01-23T05:01:03.753Z,1.68
2023-01-23T05:03:32.766Z,1.19
2023-01-23T05:06:00.647Z,1.51
2023-01-23T05:08:28.534Z,1.15
2023-01-23T05:10:56.231Z,1.32
2023-01-23T05:13:24.263Z,1.28
2023-01-23T05:15:51.951Z,1.38
2023-01-23T05:18:19.698Z,1.37
2023-01-23T05:20:48.610Z,1.08
2023-01-23T05:23:16.141Z,1.21
2023-01-23T05:25:45.241Z,1.36
2023-01-23T05:28:13.228Z,1.04
2023-01-23T05:30:41.101Z,0.92
2023-01-23T05:33:10.359Z,0.86
2023-01-23T05:35:39.012Z,1.18
2023-01-23T05:38:07.972Z,1.05
2023-01-23T05:40:40.236Z,1.26
2023-01-23T05:43:15.411Z,1.11
2023-01-23T05:45:43.087Z,1.09
2023-01-23T05:48:10.924Z,1.18
2023-01-23T05:50:38.682Z,1.22
2023-01-23T05:53:07.675Z,1.10
2023-01-23T05:55:37.692Z,0.92
2023-01-23T05:58:09.224Z,0.94
2023-01-23T06:00:36.923Z,1.03
2023-01-23T06:03:04.724Z,1.15
2023-01-23T06:05:36.379Z,1.13
2023-01-23T06:08:05.363Z,1.04
2023-01-23T06:10:36.663Z,1.39
2023-01-23T06:13:04.573Z,1.04
2023-01-23T06:15:33.203Z,1.31
2023-01-23T06:18:00.860Z,1.30
2023-01-23T06:20:28.698Z,1.14
2023-01-23T06:22:57.260Z,1.23
2023-01-23T06:25:24.890Z,1.24
2023-01-23T06:27:55.637Z,1.49
2023-01-23T06:30:23.325Z,1.34
2023-01-23T06:32:50.901Z,1.29
2023-01-23T06:35:18.919Z,1.31
2023-01-23T06:37:46.917Z,1.36
2023-01-23T06:40:15.830Z,1.36
2023-01-23T06:42:44.230Z,1.57
2023-01-23T06:45:13.263Z,1.31
2023-01-23T06:47:40.846Z,1.70
2023-01-23T06:50:09.940Z,1.66
2023-01-23T06:52:37.893Z,1.55
2023-01-23T06:55:14.707Z,1.72
2023-01-23T06:57:42.559Z,1.41
2023-01-23T07:00:14.350Z,1.48
2023-01-23T07:02:44.064Z,1.28
2023-01-23T07:05:13.376Z,1.40
2023-01-23T07:07:41.148Z,1.43
2023-01-23T07:10:10.812Z,1.76
2023-01-23T07:12:38.490Z,1.51
2023-01-23T07:15:08.431Z,1.44
2023-01-23T07:17:37.415Z,1.51
2023-01-23T07:20:06.228Z,1.57
2023-01-23T07:22:34.081Z,1.61
2023-01-23T07:25:01.669Z,1.57
2023-01-23T07:27:29.218Z,1.80
2023-01-23T07:29:59.388Z,1.51
2023-01-23T07:32:26.973Z,1.34
2023-01-23T07:34:56.107Z,1.46
2023-01-23T07:37:25.058Z,1.51
2023-01-23T07:39:53.168Z,1.63
2023-01-23T07:42:20.962Z,1.37
2023-01-23T07:44:48.654Z,1.58
2023-01-23T07:47:16.994Z,1.55
2023-01-23T07:49:45.989Z,1.42
2023-01-23T07:52:16.381Z,1.49
2023-01-23T07:54:44.906Z,1.79
2023-01-23T07:57:12.595Z,1.65
2023-01-23T07:59:40.247Z,1.60
2023-01-23T08:02:09.730Z,1.48
2023-01-23T08:04:37.850Z,1.87
2023-01-23T08:07:05.742Z,1.84
2023-01-23T08:09:34.745Z,1.99
2023-01-23T08:12:04.861Z,1.87
2023-01-23T08:14:32.677Z,2.17
2023-01-23T08:17:00.294Z,2.32
2023-01-23T08:19:28.129Z,2.19
2023-01-23T08:21:55.869Z,2.16
2023-01-23T08:27:17.816Z,2.33
2023-01-23T08:29:45.665Z,2.30
2023-01-23T08:32:14.803Z,2.49
2023-01-23T08:34:42.433Z,2.30
2023-01-23T08:37:10.073Z,2.25
2023-01-23T08:39:41.230Z,2.48
2023-01-23T08:42:09.276Z,2.18
2023-01-23T08:44:37.062Z,2.46
2023-01-23T08:47:05.355Z,2.53
2023-01-23T08:49:33.241Z,2.67
2023-01-23T08:52:00.791Z,2.07
2023-01-23T08:54:28.407Z,1.95
2023-01-23T08:56:57.376Z,1.96
2023-01-23T08:59:25.526Z,2.12
2023-01-23T09:01:53.227Z,2.19
2023-01-23T09:04:20.954Z,2.09
2023-01-23T09:06:48.825Z,2.21
2023-01-23T09:09:16.466Z,2.18
2023-01-23T09:11:44.147Z,2.10
2023-01-23T09:14:13.403Z,2.32
2023-01-23T09:16:41.130Z,2.15
2023-01-23T09:19:08.819Z,1.97
2023-01-23T09:21:36.542Z,1.84
2023-01-23T09:24:04.753Z,1.98
2023-01-23T09:26:32.383Z,2.51
2023-01-23T09:28:59.991Z,2.84
2023-01-23T09:31:29.055Z,2.26
2023-01-23T09:33:57.267Z,2.58
2023-01-23T09:36:42.107Z,2.37
2023-01-23T09:39:11.407Z,2.44
2023-01-23T09:41:40.507Z,2.77
2023-01-23T09:44:15.308Z,2.59
2023-01-23T09:46:51.272Z,2.29
2023-01-23T09:49:31.083Z,2.47
2023-01-23T09:52:06.067Z,2.54
2023-01-23T09:54:42.173Z,2.99
2023-01-23T09:57:15.357Z,3.55
2023-01-23T09:59:59.693Z,3.27
2023-01-23T10:02:29.752Z,3.12
2023-01-23T10:04:59.360Z,2.54
2023-01-23T10:07:47.872Z,3.09
2023-01-23T10:10:39.204Z,3.11
2023-01-23T10:13:16.409Z,2.91
2023-01-23T10:16:05.554Z,2.53
2023-01-23T10:18:46.813Z,2.85
2023-01-23T10:21:25.534Z,2.61
2023-01-23T10:24:03.501Z,2.88
2023-01-23T10:26:39.088Z,2.85
2023-01-23T10:29:15.401Z,3.22
2023-01-23T10:31:49.901Z,2.85
2023-01-23T10:34:28.401Z,3.26
2023-01-23T10:37:09.390Z,2.66
2023-01-23T10:39:49.671Z,3.48
2023-01-23T10:42:21.904Z,3.31
2023-01-23T10:44:50.009Z,3.15
2023-01-23T10:47:24.769Z,3.71
2023-01-23T10:49:54.715Z,3.96
2023-01-23T10:52:38.273Z,4.49
2023-01-23T10:55:28.246Z,4.18
2023-01-23T10:57:58.655Z,4.51
2023-01-23T11:00:35.050Z,4.28
2023-01-23T11:03:27.241Z,3.94
2023-01-23T11:06:01.944Z,4.06
2023-01-23T11:08:32.254Z,3.73
2023-01-23T11:11:23.218Z,3.05
2023-01-23T11:14:05.488Z,2.91
2023-01-23T11:16:34.775Z,2.77
2023-01-23T11:19:18.186Z,3.89
2023-01-23T11:21:55.187Z,4.42
2023-01-23T11:24:40.350Z,4.13
2023-01-23T11:27:21.116Z,4.10
2023-01-23T11:30:13.892Z,3.15
2023-01-23T11:32:54.066Z,2.95
2023-01-23T11:35:36.693Z,2.56
2023-01-23T11:38:11.223Z,3.77
2023-01-23T11:40:39.125Z,4.18
2023-01-23T11:43:14.452Z,3.75
2023-01-23T11:46:01.579Z,3.69
2023-01-23T11:48:48.230Z,4.46
2023-01-23T11:51:25.294Z,4.72
2023-01-23T11:54:13.659Z,3.80
2023-01-23T11:57:01.328Z,3.63
2023-01-23T12:00:14.307Z,3.19
2023-01-23T12:03:17.279Z,3.54
2023-01-23T12:06:18.804Z,3.38
2023-01-23T12:08:59.906Z,3.80
2023-01-23T12:11:40.019Z,3.60
2023-01-23T12:14:20.951Z,4.42
2023-01-23T12:17:04.577Z,5.34
2023-01-23T12:19:51.142Z,5.07
2023-01-23T12:22:32.097Z,5.17
2023-01-23T12:25:19.053Z,5.30
2023-01-23T12:27:56.860Z,4.78
2023-01-23T12:30:50.876Z,4.22
2023-01-23T12:33:40.133Z,3.87
2023-01-23T12:36:29.553Z,4.01
2023-01-23T12:39:09.389Z,3.56
2023-01-23T12:41:48.224Z,3.15
2023-01-23T12:44:22.788Z,3.60
2023-01-23T12:46:57.377Z,3.69
2023-01-23T12:49:32.788Z,2.80
2023-01-23T12:52:07.175Z,3.20
2023-01-23T12:54:43.292Z,2.93
2023-01-23T12:57:15.633Z,2.83
2023-01-23T13:00:01.194Z,3.23
2023-01-23T13:02:40.720Z,3.08
2023-01-23T13:05:21.720Z,3.08
2023-01-23T13:08:02.000Z,2.71
2023-01-23T13:10:53.921Z,2.74
2023-01-23T13:13:23.595Z,2.67
2023-01-23T13:16:11.415Z,2.65
2023-01-23T13:18:39.724Z,2.74
2023-01-23T13:21:12.417Z,3.08
2023-01-23T13:23:40.134Z,2.88
2023-01-23T13:26:26.981Z,2.94
2023-01-23T13:28:59.967Z,3.11
2023-01-23T13:31:35.107Z,3.33
2023-01-23T13:34:32.514Z,3.45
2023-01-23T13:37:44.671Z,3.22
2023-01-23T13:40:19.760Z,2.95
2023-01-23T13:42:49.280Z,2.81
2023-01-23T13:45:30.387Z,3.03
2023-01-23T14:22:11.944Z,3.08
2023-01-23T14:24:46.004Z,3.20
2023-01-23T14:27:22.426Z,3.13
2023-01-23T14:29:59.728Z,3.36
2023-01-23T14:32:30.611Z,3.02
2023-01-23T14:34:59.621Z,2.87
2023-01-23T14:37:28.220Z,3.16
2023-01-23T14:40:11.608Z,2.74
2023-01-23T14:42:42.662Z,2.78
2023-01-23T14:45:14.380Z,2.42
2023-01-23T14:47:56.182Z,2.77
2023-01-23T14:50:30.327Z,2.70
2023-01-23T14:52:58.759Z,2.80
2023-01-23T14:55:30.313Z,2.69
2023-01-23T14:58:01.466Z,2.48
2023-01-23T15:00:30.382Z,2.39
2023-01-23T15:02:58.792Z,2.45
2023-01-23T15:05:29.489Z,2.59
2023-01-23T15:08:01.103Z,2.66
2023-01-23T15:10:32.348Z,2.58
2023-01-23T15:13:03.863Z,2.58
2023-01-23T15:15:35.361Z,2.80
2023-01-23T15:18:19.368Z,2.75
2023-01-23T15:21:05.301Z,2.59
2023-01-23T15:23:35.175Z,2.77
2023-01-23T15:26:21.290Z,2.42
2023-01-23T15:28:51.613Z,2.35
2023-01-23T15:31:31.583Z,2.45
2023-01-23T15:34:19.651Z,2.61
2023-01-23T15:36:52.845Z,2.64
2023-01-23T15:39:25.364Z,2.59
2023-01-23T15:41:56.816Z,2.42
2023-01-23T15:44:28.731Z,2.39
2023-01-23T15:46:57.839Z,2.55
2023-01-23T15:49:26.593Z,2.45
2023-01-23T15:52:00.963Z,2.52
2023-01-23T15:54:33.430Z,2.62
2023-01-23T15:57:09.440Z,2.61
2023-01-23T15:59:37.387Z,2.38
2023-01-23T16:02:06.350Z,2.33
2023-01-23T16:04:34.324Z,2.19
2023-01-23T16:07:07.416Z,1.78
2023-01-23T16:09:38.327Z,1.81
2023-01-23T16:12:06.251Z,1.85
2023-01-23T16:14:36.131Z,1.90
2023-01-23T16:17:15.491Z,1.78
2023-01-23T16:19:45.089Z,1.84
2023-01-23T16:22:22.293Z,1.75
2023-01-23T16:24:50.945Z,1.85
2023-01-23T16:27:21.035Z,1.91
2023-01-23T16:29:48.753Z,1.59
2023-01-23T16:32:16.694Z,1.80
2023-01-23T16:34:45.162Z,1.70
2023-01-23T16:37:18.710Z,1.61
2023-01-23T16:39:47.496Z,1.62
2023-01-23T16:42:20.756Z,1.80
2023-01-23T16:44:50.084Z,1.60
2023-01-23T16:47:18.353Z,1.57
2023-01-23T16:49:52.751Z,1.30
2023-01-23T16:52:25.344Z,1.59
2023-01-23T16:54:54.575Z,1.57
2023-01-23T16:57:24.561Z,1.80
2023-01-23T16:59:55.088Z,1.52
2023-01-23T17:02:29.086Z,1.58
2023-01-23T17:04:57.107Z,1.44
2023-01-23T17:07:26.297Z,1.78
2023-01-23T17:09:53.941Z,1.94
2023-01-23T17:12:28.232Z,1.75
2023-01-23T17:14:57.518Z,1.65
2023-01-23T17:17:31.690Z,1.81
2023-01-23T17:20:02.386Z,1.60
2023-01-23T17:22:38.420Z,1.67
2023-01-23T17:25:13.139Z,1.63
2023-01-23T17:27:45.455Z,1.79
2023-01-23T17:30:16.640Z,1.55
2023-01-23T17:32:48.487Z,1.64
2023-01-23T17:35:20.827Z,1.63
2023-01-23T17:37:50.447Z,1.61
2023-01-23T17:40:18.317Z,1.83
2023-01-23T17:42:45.879Z,1.92
2023-01-23T17:45:14.302Z,1.95
2023-01-23T17:47:45.651Z,1.76
2023-01-23T17:50:19.624Z,1.84
2023-01-23T17:52:48.414Z,1.63
2023-01-23T17:55:19.991Z,1.88
2023-01-23T17:57:48.032Z,1.75
2023-01-23T18:00:18.168Z,1.83
2023-01-23T18:02:47.970Z,1.71
2023-01-23T18:05:16.180Z,1.92
2023-01-23T18:07:53.306Z,1.65
2023-01-23T18:10:23.759Z,1.61
2023-01-23T18:13:05.760Z,1.53
2023-01-23T18:15:43.562Z,1.88
2023-01-23T18:18:24.783Z,1.59
2023-01-23T18:20:53.032Z,1.53
2023-01-23T18:23:22.116Z,1.58
2023-01-23T18:26:04.432Z,1.59
2023-01-23T18:28:42.117Z,1.66
2023-01-23T18:31:18.496Z,1.60
2023-01-23T18:34:00.948Z,1.68
2023-01-23T18:36:53.606Z,1.94
2023-01-23T18:39:44.495Z,1.76
2023-01-23T18:42:17.251Z,1.87
2023-01-23T18:44:55.611Z,1.86
2023-01-23T18:47:24.290Z,1.82
2023-01-23T18:49:52.399Z,1.92
2023-01-23T18:52:26.910Z,1.96
2023-01-23T18:55:07.310Z,1.84
2023-01-23T18:57:56.615Z,2.01
2023-01-23T19:00:36.061Z,1.80
2023-01-23T19:03:13.789Z,1.94
2023-01-23T19:05:42.868Z,1.86
2023-01-23T19:08:25.346Z,1.82
2023-01-23T19:10:55.778Z,1.90
2023-01-23T19:13:33.723Z,1.85
2023-01-23T19:16:11.640Z,1.96
2023-01-23T19:18:47.053Z,2.20
2023-01-23T19:21:20.126Z,1.91
2023-01-23T19:23:58.278Z,1.95
2023-01-23T19:26:27.953Z,2.02
2023-01-23T19:28:59.768Z,1.97
2023-01-23T19:31:30.698Z,1.63
2023-01-23T19:33:59.199Z,2.03
2023-01-23T19:36:29.909Z,1.83
2023-01-23T19:38:58.044Z,2.07
2023-01-23T19:41:30.922Z,2.21
2023-01-23T19:43:59.876Z,2.18
2023-01-23T19:46:30.863Z,1.91
2023-01-23T19:48:58.662Z,1.88
2023-01-23T19:51:27.652Z,2.11
2023-01-23T19:53:55.239Z,1.91
2023-01-23T19:56:22.994Z,1.78
2023-01-23T19:58:50.553Z,2.03
2023-01-23T20:01:32.429Z,1.89
2023-01-23T20:06:43.389Z,2.21
2023-01-23T20:09:11.630Z,2.34
2023-01-23T20:11:39.455Z,2.08
2023-01-23T20:14:07.267Z,2.50
2023-01-23T20:16:36.280Z,2.39
2023-01-23T20:19:04.372Z,2.28
2023-01-23T20:21:33.465Z,2.23
2023-01-23T20:24:01.625Z,2.15
2023-01-23T20:26:29.321Z,2.43
2023-01-23T20:28:57.423Z,2.29
2023-01-23T20:31:25.237Z,2.30
2023-01-23T20:33:55.857Z,2.14
2023-01-23T20:36:23.778Z,2.30
2023-01-23T20:38:51.653Z,2.28
2023-01-23T20:41:22.121Z,2.48
2023-01-23T20:43:50.159Z,2.31
2023-01-23T20:46:18.243Z,2.33
2023-01-23T20:48:48.392Z,2.49
2023-01-23T20:51:17.646Z,2.48
2023-01-23T20:53:45.616Z,2.34
2023-01-23T20:56:15.782Z,2.42
2023-01-23T20:58:46.274Z,2.38
2023-01-23T21:01:14.716Z,2.17
2023-01-23T21:03:43.539Z,2.06
2023-01-23T21:06:13.992Z,2.23
2023-01-23T21:08:43.349Z,2.20
2023-01-23T21:11:14.424Z,2.19
2023-01-23T21:13:43.463Z,2.15
2023-01-23T21:16:13.529Z,2.30
2023-01-23T21:18:43.163Z,2.17
2023-01-23T21:21:13.591Z,2.14
2023-01-23T21:23:44.784Z,2.49
2023-01-23T21:26:12.561Z,2.16
2023-01-23T21:28:40.610Z,2.26
2023-01-23T21:31:09.884Z,2.29
2023-01-23T21:33:37.676Z,2.24
2023-01-23T21:36:05.945Z,2.09
2023-01-23T21:38:33.522Z,2.22
2023-01-23T21:41:02.638Z,2.10
2023-01-23T21:43:30.652Z,2.03
2023-01-23T21:45:58.592Z,1.88
2023-01-23T21:48:29.322Z,1.90
2023-01-23T21:51:04.786Z,1.91
2023-01-23T21:53:33.164Z,2.00
2023-01-23T21:56:02.846Z,1.99
2023-01-23T21:58:30.408Z,2.01
2023-01-23T22:00:58.887Z,1.92
2023-01-23T22:03:26.968Z,2.07
2023-01-23T22:05:57.366Z,2.01
2023-01-23T22:08:24.922Z,2.09
2023-01-23T22:10:52.556Z,2.00
2023-01-23T22:13:21.601Z,2.17
2023-01-23T22:15:49.410Z,2.23
2023-01-23T22:18:17.043Z,2.02
2023-01-23T22:20:44.862Z,2.07
2023-01-23T22:23:12.446Z,2.15
2023-01-23T22:25:42.682Z,2.34
2023-01-23T22:28:10.283Z,2.50
2023-01-23T22:30:39.203Z,2.23
2023-01-23T22:33:06.780Z,2.19
2023-01-23T22:35:37.516Z,2.26
2023-01-23T22:38:05.452Z,2.39
2023-01-23T22:40:33.147Z,2.56
2023-01-23T22:43:00.862Z,2.52
2023-01-23T22:45:28.444Z,2.54
2023-01-23T22:47:57.945Z,2.70
2023-01-23T22:50:26.840Z,2.55
2023-01-23T22:52:54.394Z,2.27
2023-01-23T22:55:22.160Z,2.37
2023-01-23T22:57:52.238Z,2.15
2023-01-23T23:00:20.648Z,1.93
2023-01-23T23:02:48.202Z,1.99
2023-01-23T23:05:17.425Z,2.07
2023-01-23T23:07:45.061Z,1.94
2023-01-23T23:10:12.895Z,1.98
2023-01-23T23:12:40.571Z,2.05
2023-01-23T23:15:09.327Z,2.17
2023-01-23T23:17:37.226Z,2.33
2023-01-23T23:20:05.877Z,2.39
2023-01-23T23:22:35.028Z,2.40
2023-01-23T23:25:02.741Z,2.36
2023-01-23T23:27:31.588Z,2.58
2023-01-23T23:29:59.921Z,2.41
2023-01-23T23:32:27.679Z,2.15
2023-01-23T23:34:55.323Z,2.08
2023-01-23T23:37:23.104Z,2.05
2023-01-23T23:39:52.108Z,2.00
2023-01-23T23:42:19.740Z,1.81
2023-01-23T23:44:51.363Z,1.82
2023-01-23T23:47:21.345Z,1.68
2023-01-23T23:49:49.202Z,1.73
2023-01-23T23:52:17.356Z,1.52
2023-01-23T23:54:46.008Z,1.66
2023-01-23T23:57:16.674Z,1.62
2023-01-23T23:59:44.496Z,1.66
